Time;durP1;ratioP1;P1;durP2;ratioP2;P2;SDS_P1;SDS_P2;PMS_P1;PMS_P2;Temp;Humidity;BMP_temperature;BMP_pressure;BME280_temperature;BME280_humidity;BME280_pressure;Samples;Min_cycle;Max_cycle;Signal;HPM_P1;HPM_P2
2022/04/26 03:36:37;;;;;;;;;;;7.50;99.90;;;;;;5056252;28;19982;-69
2022/04/26 03:39:03;;;;;;;;;;;7.50;99.90;;;;;;5058145;28;19925;-68
2022/04/26 03:41:28;;;;;;;;;;;7.60;99.90;;;;;;5059019;28;19924;-69
2022/04/26 03:43:54;;;;;;;;;;;7.60;99.90;;;;;;5073891;28;19931;-69
2022/04/26 03:46:19;;;;;;;;;;;7.50;99.90;;;;;;5055976;28;19928;-69
2022/04/26 03:48:45;;;;;;;;;;;7.50;99.90;;;;;;5073938;28;19924;-69
2022/04/26 03:51:10;;;;;;;;;;;7.60;99.90;;;;;;5073625;28;19925;-69
2022/04/26 03:53:36;;;;;;;;;;;7.60;99.90;;;;;;5055905;28;19929;-69
2022/04/26 03:56:01;;;;;;;;;;;7.50;99.90;;;;;;5040771;28;19932;-69
2022/04/26 03:58:28;;;;;;;;;;;7.50;99.90;;;;;;5073876;28;20007;-69
2022/04/26 04:00:55;;;;;;;;;;;7.50;99.90;;;;;;5074425;28;19931;-69
2022/04/26 04:03:20;;;;;;;;;;;7.50;99.90;;;;;;5059546;28;19924;-69
2022/04/26 04:05:46;;;;;;;;;;;7.50;99.90;;;;;;5074688;28;19928;-69
2022/04/26 04:08:11;;;;;;;;;;;7.50;99.90;;;;;;5073382;28;19934;-69
2022/04/26 04:10:37;;;;;;;;;;;7.40;99.90;;;;;;5072904;28;20264;-69
2022/04/26 04:13:02;;;;;;;;;;;7.40;99.90;;;;;;5073379;28;20164;-69
2022/04/26 04:15:27;;;;;;;;;;;7.40;99.90;;;;;;5073142;28;20391;-69
2022/04/26 04:17:53;;;;;;;;;;;7.40;99.90;;;;;;5073153;28;19931;-69
2022/04/26 04:20:19;;;;;;;;;;;7.40;99.90;;;;;;5055102;28;20300;-69
2022/04/26 04:22:45;;;;;;;;;;;7.30;99.90;;;;;;5073288;28;19932;-69
2022/04/26 04:25:10;;;;;;;;;;;7.30;99.90;;;;;;5072872;28;19931;-69
2022/04/26 04:27:36;;;;;;;;;;;7.30;99.90;;;;;;5072692;28;19928;-69
2022/04/26 04:30:02;;;;;;;;;;;7.30;99.90;;;;;;5054918;28;19943;-69
2022/04/26 04:32:29;;;;;;;;;;;7.30;99.90;;;;;;5055153;28;19925;-69
2022/04/26 04:34:54;;;;;;;;;;;7.30;99.90;;;;;;5072740;28;19931;-69
2022/04/26 04:37:22;;;;;;;;;;;7.30;99.90;;;;;;5073226;28;20000;-69
2022/04/26 04:39:51;;;;;;;;;;;7.30;99.90;;;;;;5038092;28;19950;-69
2022/04/26 04:42:17;;;;;;;;;;;7.30;99.90;;;;;;5073220;28;20019;-69
2022/04/26 04:44:42;;;;;;;;;;;7.30;99.90;;;;;;5055675;28;20355;-69
2022/04/26 04:47:08;;;;;;;;;;;7.40;99.90;;;;;;5055802;28;20061;-69
2022/04/26 04:49:33;;;;;;;;;;;7.40;99.90;;;;;;5072807;28;20375;-69
2022/04/26 04:51:59;;;;;;;;;;;7.40;99.90;;;;;;5072922;28;19981;-69
2022/04/26 04:54:24;;;;;;;;;;;7.40;99.90;;;;;;5072789;28;19932;-69
2022/04/26 04:56:50;;;;;;;;;;;7.40;99.90;;;;;;5072627;28;19932;-69
2022/04/26 04:59:16;;;;;;;;;;;7.40;99.90;;;;;;5072747;28;19924;-69
2022/04/26 05:01:42;;;;;;;;;;;7.40;99.90;;;;;;5072848;28;19925;-69
2022/04/26 05:04:07;;;;;;;;;;;7.50;99.90;;;;;;5072867;28;19942;-69
2022/04/26 05:06:33;;;;;;;;;;;7.50;99.90;;;;;;5055133;28;20018;-69
2022/04/26 05:08:58;;;;;;;;;;;7.50;99.90;;;;;;5055205;28;20371;-69
2022/04/26 05:11:24;;;;;;;;;;;7.60;99.90;;;;;;5054974;28;20001;-69
2022/04/26 05:13:49;;;;;;;;;;;7.50;99.90;;;;;;5037935;28;19964;-69
2022/04/26 05:16:15;;;;;;;;;;;7.60;99.90;;;;;;5073051;28;19924;-69
2022/04/26 05:18:40;;;;;;;;;;;7.60;99.90;;;;;;5075500;28;19961;-69
2022/04/26 05:21:06;;;;;;;;;;;7.70;99.90;;;;;;5073013;28;19954;-69
2022/04/26 05:26:20;;;;;;;;;;;7.70;99.90;;;;;;5014406;28;19933;-69
2022/04/26 05:28:46;;;;;;;;;;;7.80;99.90;;;;;;5014538;28;20102;-70
2022/04/26 05:31:12;;;;;;;;;;;7.80;99.90;;;;;;5014295;28;19925;-70
2022/04/26 05:33:37;;;;;;;;;;;7.90;99.90;;;;;;5014347;28;20055;-70
2022/04/26 05:36:03;;;;;;;;;;;7.90;99.90;;;;;;4998008;28;19925;-70
2022/04/26 05:38:29;;;;;;;;;;;7.90;99.90;;;;;;4997962;28;20020;-70
2022/04/26 05:40:54;;;;;;;;;;;7.90;99.90;;;;;;5014418;28;20036;-70
2022/04/26 05:43:20;;;;;;;;;;;7.90;99.90;;;;;;5014116;28;19926;-70
2022/04/26 05:45:46;;;;;;;;;;;7.90;99.90;;;;;;5014176;28;19933;-70
2022/04/26 05:48:13;;;;;;;;;;;7.90;99.90;;;;;;4998060;28;20009;-69
2022/04/26 05:50:39;;;;;;;;;;;7.90;99.90;;;;;;5013943;28;19926;-70
2022/04/26 05:53:04;;;;;;;;;;;7.90;99.90;;;;;;5001427;28;20428;-70
2022/04/26 05:55:30;;;;;;;;;;;8.00;99.90;;;;;;5014410;28;19999;-70
2022/04/26 05:57:55;;;;;;;;;;;8.00;99.90;;;;;;4997656;28;20008;-69
2022/04/26 06:00:21;;;;;;;;;;;8.10;99.90;;;;;;5014169;28;19941;-69
2022/04/26 06:02:49;;;;;;;;;;;8.20;99.90;;;;;;5032382;28;19931;-70
2022/04/26 06:05:15;;;;;;;;;;;8.30;99.90;;;;;;5076110;28;19928;-70
2022/04/26 06:07:41;;;;;;;;;;;8.40;99.90;;;;;;5075560;28;20345;-70
2022/04/26 06:10:07;;;;;;;;;;;;;;;;;;5057961;28;19928;-70
2022/04/26 06:12:34;;;;;;;;;;;;;;;;;;5041113;28;19925;-70
2022/04/26 06:15:00;;;;;;;;;;;8.70;99.90;;;;;;5057532;28;19936;-69
2022/04/26 06:17:25;;;;;;;;;;;9.30;99.90;;;;;;5058055;28;20306;-69
2022/04/26 06:19:51;;;;;;;;;;;9.30;99.90;;;;;;5075779;28;19924;-69
2022/04/26 06:22:17;;;;;;;;;;;9.70;99.90;;;;;;5040903;28;20363;-69
2022/04/26 06:24:42;;;;;;;;;;;10.00;99.90;;;;;;5075673;28;19932;-69
2022/04/26 06:27:08;;;;;;;;;;;9.60;99.90;;;;;;5077855;28;19925;-69
2022/04/26 06:29:33;;;;;;;;;;;9.80;99.90;;;;;;5075614;28;19928;-69
2022/04/26 06:31:59;;;;;;;;;;;9.80;99.90;;;;;;5076314;28;19924;-69
2022/04/26 06:34:24;;;;;;;;;;;9.70;99.90;;;;;;5075663;28;19928;-69
2022/04/26 06:36:50;;;;;;;;;;;9.40;99.90;;;;;;5075099;28;20020;-69
2022/04/26 06:39:16;;;;;;;;;;;9.40;99.90;;;;;;5075447;28;20259;-69
2022/04/26 06:41:41;;;;;;;;;;;9.50;99.90;;;;;;5057482;28;19935;-69
2022/04/26 06:44:07;;;;;;;;;;;9.50;99.90;;;;;;5057021;28;19935;-69
2022/04/26 06:46:35;;;;;;;;;;;9.70;99.90;;;;;;5075368;28;20410;-69
2022/04/26 06:49:05;;;;;;;;;;;9.80;99.90;;;;;;5074895;28;20376;-69
2022/04/26 06:51:34;;;;;;;;;;;9.70;99.90;;;;;;5074679;28;19932;-69
2022/04/26 06:53:59;;;;;;;;;;;9.70;99.90;;;;;;5040139;28;19932;-69
2022/04/26 06:56:24;;;;;;;;;;;9.70;99.90;;;;;;5075102;28;20287;-69
2022/04/26 06:58:50;;;;;;;;;;;9.70;99.90;;;;;;5058342;28;19924;-69
2022/04/26 07:01:15;;;;;;;;;;;10.00;99.90;;;;;;5075320;28;19928;-69
2022/04/26 07:03:41;;;;;;;;;;;10.60;99.90;;;;;;5074752;28;19924;-70
2022/04/26 07:06:06;;;;;;;;;;;10.90;99.90;;;;;;5074907;28;19925;-70
2022/04/26 07:08:32;;;;;;;;;;;11.30;99.90;;;;;;5074953;28;19971;-70
2022/04/26 07:10:57;;;;;;;;;;;11.30;99.90;;;;;;5074903;28;19929;-69
2022/04/26 07:13:23;;;;;;;;;;;11.40;99.90;;;;;;5075127;28;20387;-70
2022/04/26 07:15:48;;;;;;;;;;;11.10;99.90;;;;;;5039897;28;19986;-69
2022/04/26 07:18:14;;;;;;;;;;;;;;;;;;5057276;28;19924;-73
2022/04/26 07:20:40;;;;;;;;;;;10.90;99.90;;;;;;5056935;28;20376;-70
2022/04/26 07:23:06;;;;;;;;;;;11.10;99.90;;;;;;5074420;28;19928;-69
2022/04/26 07:25:32;;;;;;;;;;;11.00;99.90;;;;;;5074390;28;19978;-69
2022/04/26 07:27:57;;;;;;;;;;;10.70;99.90;;;;;;5074307;28;20353;-69
2022/04/26 07:30:23;;;;;;;;;;;10.40;99.90;;;;;;5074136;28;19925;-69
2022/04/26 07:35:43;;;;;;;;;;;9.80;99.90;;;;;;5012310;28;19940;-70
2022/04/26 07:38:08;;;;;;;;;;;9.80;99.90;;;;;;4979908;28;20059;-70
2022/04/26 07:40:34;;;;;;;;;;;9.80;99.90;;;;;;5017977;28;19948;-69
2022/04/26 07:43:00;;;;;;;;;;;9.90;99.90;;;;;;5017782;28;20330;-69
2022/04/26 07:45:25;;;;;;;;;;;9.80;99.90;;;;;;5011518;28;19932;-70
2022/04/26 07:47:51;;;;;;;;;;;9.90;99.90;;;;;;5013838;28;19941;-70
2022/04/26 07:50:16;;;;;;;;;;;10.10;99.90;;;;;;5012235;28;20264;-70
2022/04/26 07:52:42;;;;;;;;;;;10.10;99.90;;;;;;5011805;28;19925;-70
2022/04/26 07:55:08;;;;;;;;;;;10.20;99.90;;;;;;5011977;28;19964;-70
2022/04/26 07:57:33;;;;;;;;;;;10.30;99.90;;;;;;4979578;28;19932;-70
2022/04/26 08:00:00;;;;;;;;;;;10.20;99.90;;;;;;4995557;28;19925;-70
2022/04/26 08:02:26;;;;;;;;;;;10.20;99.90;;;;;;5011760;28;19926;-70
2022/04/26 08:04:53;;;;;;;;;;;10.50;99.90;;;;;;5015291;28;19925;-69
2022/04/26 08:07:18;;;;;;;;;;;10.50;99.90;;;;;;5012009;28;19968;-69
2022/04/26 08:09:44;;;;;;;;;;;10.50;99.90;;;;;;5011554;28;19991;-70
2022/04/26 08:12:09;;;;;;;;;;;10.70;99.90;;;;;;5044034;28;20007;-69
2022/04/26 08:14:35;;;;;;;;;;;10.80;99.90;;;;;;5073226;28;20383;-70
2022/04/26 08:17:00;;;;;;;;;;;10.90;99.90;;;;;;5073626;28;19924;-69
2022/04/26 08:19:26;;;;;;;;;;;11.00;99.90;;;;;;5055779;28;19944;-70
2022/04/26 08:21:51;;;;;;;;;;;11.10;99.90;;;;;;5073243;28;19931;-69
2022/04/26 08:29:46;;;;;;;;;;;10.90;99.90;;;;;;5073444;28;20307;-70
2022/04/26 08:32:13;;;;;;;;;;;10.80;99.90;;;;;;5055324;28;19924;-69
2022/04/26 08:34:39;;;;;;;;;;;10.70;99.90;;;;;;5073152;28;19925;-70
2022/04/26 08:37:04;;;;;;;;;;;11.00;99.90;;;;;;5055409;28;19925;-70
2022/04/26 08:39:30;;;;;;;;;;;10.90;99.90;;;;;;5072920;28;20345;-70
2022/04/26 08:41:56;;;;;;;;;;;11.00;99.90;;;;;;5055227;28;20018;-70
2022/04/26 08:44:25;;;;;;;;;;;10.90;99.90;;;;;;5072476;28;20402;-70
2022/04/26 08:52:19;;;;;;;;;;;10.90;99.90;;;;;;5072549;28;19924;-70
2022/04/26 08:54:44;;;;;;;;;;;10.80;99.90;;;;;;5073056;28;19977;-69
2022/04/26 08:57:12;;;;;;;;;;;10.90;99.90;;;;;;5074276;28;19932;-69
2022/04/26 08:59:45;;;;;;;;;;;11.00;99.90;;;;;;5055380;28;20437;-69
2022/04/26 09:02:18;;;;;;;;;;;11.00;99.90;;;;;;5055448;28;20372;-69
2022/04/26 09:04:44;;;;;;;;;;;11.20;99.90;;;;;;5075665;28;20314;-69
2022/04/26 09:07:11;;;;;;;;;;;11.20;99.90;;;;;;5072946;28;20006;-69
2022/04/26 09:09:40;;;;;;;;;;;11.30;99.90;;;;;;5054518;28;19924;-69
2022/04/26 09:12:09;;;;;;;;;;;11.40;99.90;;;;;;5073160;28;19971;-70
2022/04/26 09:14:36;;;;;;;;;;;11.50;99.90;;;;;;5055023;28;19925;-70
2022/04/26 09:17:06;;;;;;;;;;;11.60;99.90;;;;;;5054518;28;20038;-70
2022/04/26 09:19:45;;;;;;;;;;;11.50;99.90;;;;;;5072713;28;19974;-69
2022/04/26 09:22:17;;;;;;;;;;;11.60;99.90;;;;;;5054542;28;19925;-69
2022/04/26 09:24:56;;;;;;;;;;;11.70;99.90;;;;;;5054665;28;20276;-70
2022/04/26 09:27:23;;;;;;;;;;;11.50;99.90;;;;;;5072748;28;19925;-69
2022/04/26 09:29:48;;;;;;;;;;;11.20;99.90;;;;;;5054181;28;19924;-70
2022/04/26 09:32:13;;;;;;;;;;;11.30;99.90;;;;;;5054606;28;20398;-69
2022/04/26 09:34:39;;;;;;;;;;;11.30;99.90;;;;;;5054558;28;19971;-70
2022/04/26 09:37:05;;;;;;;;;;;11.40;99.90;;;;;;5072581;28;19926;-70
2022/04/26 09:39:31;;;;;;;;;;;11.50;99.90;;;;;;5072590;28;20043;-69
2022/04/26 09:41:56;;;;;;;;;;;11.60;99.90;;;;;;5054717;28;20007;-70
2022/04/26 09:44:31;;;;;;;;;;;11.70;99.90;;;;;;5054264;28;20003;-70
2022/04/26 09:46:57;;;;;;;;;;;11.70;99.90;;;;;;5054643;28;19929;-69
2022/04/26 09:49:23;;;;;;;;;;;12.00;99.90;;;;;;5072679;28;20019;-70
2022/04/26 09:51:54;;;;;;;;;;;12.10;99.90;;;;;;5054355;28;19931;-69
2022/04/26 09:54:20;;;;;;;;;;;12.20;99.90;;;;;;5054621;28;19921;-69
2022/04/26 09:56:47;;;;;;;;;;;12.20;99.90;;;;;;5072627;28;19925;-70
2022/04/26 09:59:38;;;;;;;;;;;12.10;99.90;;;;;;5072612;28;19928;-69
2022/04/26 10:02:07;;;;;;;;;;;12.20;99.90;;;;;;5051098;28;20303;-70
2022/04/26 10:04:33;;;;;;;;;;;12.40;99.90;;;;;;5054078;28;19924;-69
2022/04/26 10:07:08;;;;;;;;;;;12.60;99.90;;;;;;5037777;28;19970;-72
2022/04/26 10:09:34;;;;;;;;;;;12.70;99.90;;;;;;5075306;28;20011;-70
2022/04/26 10:12:00;;;;;;;;;;;12.70;99.90;;;;;;5059810;28;19971;-71
2022/04/26 10:14:27;;;;;;;;;;;13.10;99.90;;;;;;5077855;28;19924;-69
2022/04/26 10:16:53;;;;;;;;;;;13.10;99.90;;;;;;5084126;28;19932;-70
2022/04/26 10:19:19;;;;;;;;;;;13.20;99.90;;;;;;5081200;28;20440;-70
2022/04/26 10:21:46;;;;;;;;;;;13.00;99.90;;;;;;5076725;28;19931;-70
2022/04/26 10:24:12;;;;;;;;;;;13.10;99.90;;;;;;5075506;28;20405;-69
2022/04/26 10:26:37;;;;;;;;;;;13.10;99.90;;;;;;5057842;28;19924;-70
2022/04/26 10:29:06;;;;;;;;;;;13.00;99.90;;;;;;5075632;28;20371;-70
2022/04/26 10:31:38;;;;;;;;;;;13.00;99.90;;;;;;5075464;28;20303;-70
2022/04/26 10:34:31;;;;;;;;;;;13.10;99.90;;;;;;5075691;28;20074;-72
2022/04/26 10:37:06;;;;;;;;;;;13.40;99.90;;;;;;5075487;28;20358;-70
2022/04/26 10:39:35;;;;;;;;;;;13.40;99.90;;;;;;5057441;28;19982;-70
2022/04/26 10:42:01;;;;;;;;;;;13.20;99.90;;;;;;5075418;28;19925;-70
2022/04/26 10:44:28;;;;;;;;;;;13.10;99.90;;;;;;5075238;28;20099;-71
2022/04/26 10:46:55;;;;;;;;;;;13.00;99.90;;;;;;5075593;28;19979;-71
2022/04/26 10:49:27;;;;;;;;;;;13.10;99.90;;;;;;5075484;28;19978;-70
2022/04/26 10:51:56;;;;;;;;;;;13.20;99.90;;;;;;5075040;28;19924;-70
2022/04/26 10:54:40;;;;;;;;;;;13.00;99.90;;;;;;5057274;28;20391;-70
2022/04/26 10:57:05;;;;;;;;;;;13.10;99.90;;;;;;5075420;28;19975;-70
2022/04/26 10:59:31;;;;;;;;;;;13.30;99.90;;;;;;5074998;28;19965;-70
2022/04/26 11:01:56;;;;;;;;;;;13.50;99.90;;;;;;5075361;28;19929;-70
2022/04/26 11:04:22;;;;;;;;;;;13.70;99.90;;;;;;5074870;28;19964;-70
2022/04/26 11:06:48;;;;;;;;;;;14.20;99.40;;;;;;5074930;28;19974;-70
2022/04/26 11:09:15;;;;;;;;;;;14.20;99.20;;;;;;5075327;28;19932;-70
2022/04/26 11:11:47;;;;;;;;;;;14.40;98.90;;;;;;5074738;28;19924;-70
2022/04/26 11:14:13;;;;;;;;;;;14.90;98.90;;;;;;5075120;28;19931;-69
2022/04/26 11:16:53;;;;;;;;;;;14.50;96.20;;;;;;5074525;28;19925;-70
2022/04/26 11:19:45;;;;;;;;;;;14.90;97.80;;;;;;5074082;28;20351;-70
2022/04/26 11:22:14;;;;;;;;;;;15.00;95.40;;;;;;5050809;28;20388;-70
2022/04/26 11:30:09;;;;;;;;;;;14.20;95.10;;;;;;5074794;28;20375;-70
2022/04/26 11:32:35;;;;;;;;;;;14.40;95.10;;;;;;5074722;28;20019;-70
2022/04/26 11:35:01;;;;;;;;;;;14.90;95.60;;;;;;5057071;28;19925;-70
2022/04/26 11:37:26;;;;;;;;;;;15.00;94.30;;;;;;5073990;28;19924;-69
2022/04/26 11:39:52;;;;;;;;;;;14.90;95.60;;;;;;5039612;28;19932;-69
2022/04/26 11:42:19;;;;;;;;;;;14.30;94.60;;;;;;5074315;28;19972;-70
2022/04/26 11:45:03;;;;;;;;;;;14.10;94.20;;;;;;5073715;28;19931;-70
2022/04/26 11:47:48;;;;;;;;;;;14.10;94.60;;;;;;5039653;28;19925;-69
2022/04/26 11:50:21;;;;;;;;;;;14.30;94.10;;;;;;5039373;28;19924;-69
2022/04/26 11:52:50;;;;;;;;;;;14.70;94.00;;;;;;5073683;28;20276;-69
2022/04/26 11:55:24;;;;;;;;;;;14.60;90.90;;;;;;5073570;28;20379;-69
2022/04/26 11:57:50;;;;;;;;;;;15.00;91.60;;;;;;5056003;28;19932;-69
2022/04/26 12:00:16;;;;;;;;;;;15.20;92.10;;;;;;5073732;28;20027;-70
2022/04/26 12:02:43;;;;;;;;;;;15.70;91.60;;;;;;5073831;28;20009;-70
2022/04/26 12:05:09;;;;;;;;;;;15.50;95.20;;;;;;5073601;28;19925;-69
2022/04/26 12:07:35;;;;;;;;;;;14.80;88.50;;;;;;5055568;28;19924;-70
2022/04/26 12:10:00;;;;;;;;;;;14.90;90.80;;;;;;5056633;28;19932;-69
2022/04/26 12:12:27;;;;;;;;;;;14.60;89.40;;;;;;5073596;28;20359;-69
2022/04/26 12:14:53;;;;;;;;;;;14.60;88.60;;;;;;5073743;28;19924;-70
2022/04/26 12:17:21;;;;;;;;;;;14.70;90.20;;;;;;5073407;28;19924;-70
2022/04/26 12:19:50;;;;;;;;;;;14.50;90.90;;;;;;5073620;28;20088;-69
2022/04/26 12:22:16;;;;;;;;;;;14.50;90.70;;;;;;5055687;28;20291;-69
2022/04/26 12:24:46;;;;;;;;;;;14.80;92.00;;;;;;5038585;28;19925;-70
2022/04/26 12:27:12;;;;;;;;;;;14.50;88.20;;;;;;5073779;28;19986;-69
2022/04/26 12:29:42;;;;;;;;;;;14.40;86.50;;;;;;5073667;28;20324;-70
2022/04/26 12:32:12;;;;;;;;;;;14.40;88.20;;;;;;5043283;28;19936;-70
2022/04/26 12:34:47;;;;;;;;;;;14.40;88.50;;;;;;5073244;28;19940;-70
2022/04/26 12:37:16;;;;;;;;;;;14.40;89.60;;;;;;5072923;28;19924;-70
2022/04/26 12:39:42;;;;;;;;;;;14.30;90.10;;;;;;5073151;28;19978;-69
2022/04/26 12:42:12;;;;;;;;;;;14.30;90.20;;;;;;5057196;28;19924;-69
2022/04/26 12:44:48;;;;;;;;;;;14.40;90.40;;;;;;5076573;28;19929;-69
2022/04/26 12:52:42;;;;;;;;;;;14.60;83.80;;;;;;5073098;28;20011;-69
2022/04/26 12:55:08;;;;;;;;;;;14.80;86.30;;;;;;5072813;28;20409;-69
2022/04/26 12:57:50;;;;;;;;;;;15.00;85.20;;;;;;5054606;28;20291;-69
2022/04/26 13:00:16;;;;;;;;;;;15.30;87.50;;;;;;5073180;28;19925;-69
2022/04/26 13:02:41;;;;;;;;;;;15.40;85.00;;;;;;5054748;28;19925;-69
2022/04/26 13:05:07;;;;;;;;;;;15.50;85.80;;;;;;5073359;28;19973;-69
2022/04/26 13:07:32;;;;;;;;;;;15.00;82.00;;;;;;5054553;28;20410;-69
2022/04/26 13:09:58;;;;;;;;;;;15.40;84.10;;;;;;5072591;28;20414;-69
2022/04/26 13:12:24;;;;;;;;;;;15.20;83.60;;;;;;5073293;28;19920;-69
2022/04/26 13:14:50;;;;;;;;;;;15.40;84.10;;;;;;5072826;28;19967;-69
2022/04/26 13:17:16;;;;;;;;;;;15.80;83.60;;;;;;5072768;28;19924;-69
2022/04/26 13:19:41;;;;;;;;;;;16.20;80.40;;;;;;5054792;28;19940;-69
2022/04/26 13:22:07;;;;;;;;;;;16.10;79.00;;;;;;5072940;28;19929;-69
2022/04/26 13:24:32;;;;;;;;;;;15.60;79.50;;;;;;5072515;28;19971;-69
2022/04/26 13:26:58;;;;;;;;;;;15.70;78.70;;;;;;5072325;28;19947;-70
2022/04/26 13:29:23;;;;;;;;;;;15.60;77.30;;;;;;5072150;28;19924;-69
2022/04/26 13:31:49;;;;;;;;;;;15.50;77.60;;;;;;5054333;28;20414;-69
2022/04/26 13:34:14;;;;;;;;;;;15.50;77.60;;;;;;5054715;28;19931;-69
2022/04/26 13:36:39;;;;;;;;;;;15.90;78.90;;;;;;5076310;28;19951;-69
2022/04/26 13:39:05;;;;;;;;;;;15.80;76.90;;;;;;5058120;28;19974;-69
2022/04/26 13:41:31;;;;;;;;;;;16.00;75.80;;;;;;5054269;28;19924;-69
2022/04/26 13:43:57;;;;;;;;;;;15.30;75.00;;;;;;5056536;28;19998;-69
2022/04/26 13:46:23;;;;;;;;;;;15.30;77.20;;;;;;5076655;28;19975;-69
2022/04/26 13:48:50;;;;;;;;;;;15.50;76.60;;;;;;5058374;28;19974;-69
2022/04/26 13:51:15;;;;;;;;;;;15.50;73.60;;;;;;5058068;28;19924;-69
2022/04/26 13:53:41;;;;;;;;;;;15.00;72.80;;;;;;5058210;28;19924;-69
2022/04/26 13:56:09;;;;;;;;;;;14.70;73.00;;;;;;5058429;28;19932;-70
2022/04/26 13:58:34;;;;;;;;;;;14.90;75.20;;;;;;5078134;28;20229;-69
2022/04/26 14:01:00;;;;;;;;;;;15.50;76.00;;;;;;5076534;28;20023;-70
2022/04/26 14:03:27;;;;;;;;;;;15.20;72.80;;;;;;5076823;28;19925;-69
2022/04/26 14:05:54;;;;;;;;;;;14.90;73.10;;;;;;5044628;28;19929;-70
2022/04/26 14:08:20;;;;;;;;;;;14.90;75.70;;;;;;5058086;28;19924;-70
2022/04/26 14:10:45;;;;;;;;;;;15.30;76.00;;;;;;5075992;28;19924;-70
2022/04/26 14:13:11;;;;;;;;;;;15.50;75.80;;;;;;5076291;28;20007;-70
2022/04/26 14:21:47;;;;;;;;;;;15.30;72.30;;;;;;5060649;28;19925;-70
2022/04/26 14:24:05;;;;;;;;;;;15.40;71.80;;;;;;5057800;28;20383;-69
2022/04/26 14:26:31;;;;;;;;;;;15.50;73.30;;;;;;5025389;28;20067;-70
2022/04/26 14:28:56;;;;;;;;;;;15.70;73.50;;;;;;5075765;28;20046;-69
2022/04/26 14:31:22;;;;;;;;;;;15.60;73.60;;;;;;5075670;28;19934;-70
2022/04/26 14:33:47;;;;;;;;;;;15.40;71.30;;;;;;5057782;28;19934;-70
2022/04/26 14:36:13;;;;;;;;;;;15.50;72.60;;;;;;5075614;28;19925;-70
2022/04/26 14:38:38;;;;;;;;;;;15.20;71.90;;;;;;5057887;28;19925;-70
2022/04/26 14:41:04;;;;;;;;;;;15.10;71.00;;;;;;5076726;28;19928;-70
2022/04/26 14:43:29;;;;;;;;;;;15.20;71.80;;;;;;5077546;28;19925;-70
2022/04/26 14:45:55;;;;;;;;;;;15.30;73.20;;;;;;5077553;28;20313;-71
2022/04/26 14:48:23;;;;;;;;;;;15.10;71.20;;;;;;5075429;28;19924;-71
2022/04/26 14:50:48;;;;;;;;;;;15.10;71.60;;;;;;5075202;28;19924;-70
2022/04/26 14:53:14;;;;;;;;;;;15.00;72.60;;;;;;5075065;28;19942;-70
2022/04/26 14:55:39;;;;;;;;;;;15.40;73.00;;;;;;5075422;28;19925;-70
2022/04/26 14:58:06;;;;;;;;;;;15.40;70.30;;;;;;5074990;28;19924;-70
2022/04/26 15:00:35;;;;;;;;;;;15.20;70.70;;;;;;5057215;28;19925;-71
2022/04/26 15:03:00;;;;;;;;;;;15.30;71.40;;;;;;5075000;28;20011;-70
2022/04/26 15:05:27;;;;;;;;;;;15.40;70.30;;;;;;5075172;28;20011;-70
2022/04/26 15:10:36;;;;;;;;;;;15.60;70.50;;;;;;5075302;28;19935;-70
2022/04/26 15:18:30;;;;;;;;;;;15.40;68.70;;;;;;5076759;28;19924;-70
2022/04/26 15:20:56;;;;;;;;;;;15.70;71.30;;;;;;5057857;28;20379;-71
2022/04/26 15:23:21;;;;;;;;;;;15.80;71.40;;;;;;5056759;28;20007;-70
2022/04/26 15:25:55;;;;;;;;;;;15.60;68.00;;;;;;5056063;28;19985;-71
2022/04/26 15:28:21;;;;;;;;;;;15.70;71.60;;;;;;5039634;28;19924;-70
2022/04/26 15:30:48;;;;;;;;;;;15.40;69.20;;;;;;5056340;28;19924;-70
2022/04/26 15:33:14;;;;;;;;;;;15.60;69.70;;;;;;5056209;28;20382;-70
2022/04/26 15:35:42;;;;;;;;;;;15.50;70.10;;;;;;5056459;28;19925;-70
2022/04/26 15:38:10;;;;;;;;;;;15.40;69.30;;;;;;5056009;28;19929;-70
2022/04/26 15:40:37;;;;;;;;;;;15.20;69.50;;;;;;5056412;28;19925;-70
2022/04/26 15:43:04;;;;;;;;;;;14.90;68.20;;;;;;5039352;28;19973;-71
2022/04/26 15:45:29;;;;;;;;;;;14.90;69.70;;;;;;5056017;28;19924;-71
2022/04/26 15:47:55;;;;;;;;;;;15.30;79.50;;;;;;5074272;28;19931;-70
2022/04/26 15:50:20;;;;;;;;;;;15.30;70.80;;;;;;5073886;28;19925;-70
2022/04/26 15:52:46;;;;;;;;;;;15.30;71.60;;;;;;5056295;28;20241;-70
2022/04/26 15:55:11;;;;;;;;;;;15.40;71.70;;;;;;5073673;28;19935;-70
2022/04/26 15:57:37;;;;;;;;;;;15.00;70.60;;;;;;5055960;28;20034;-70
2022/04/26 16:00:04;;;;;;;;;;;15.00;79.30;;;;;;5055826;28;20398;-71
2022/04/26 16:02:31;;;;;;;;;;;14.80;71.40;;;;;;5055857;28;19931;-71
2022/04/26 16:04:57;;;;;;;;;;;15.00;72.40;;;;;;5055869;28;19925;-70
2022/04/26 16:07:22;;;;;;;;;;;15.10;71.40;;;;;;5054935;28;20306;-70
2022/04/26 16:20:44;;;;;;;;;;;14.30;76.00;;;;;;5073565;28;19949;-70
2022/04/26 16:23:09;;;;;;;;;;;14.50;75.50;;;;;;5073933;28;20015;-70
2022/04/26 16:25:35;;;;;;;;;;;14.20;73.90;;;;;;5073570;28;19943;-70
2022/04/26 16:28:00;;;;;;;;;;;14.30;76.60;;;;;;5076072;28;19931;-69
2022/04/26 16:30:29;;;;;;;;;;;14.30;76.60;;;;;;5039635;28;19990;-69
2022/04/26 16:32:55;;;;;;;;;;;14.10;77.60;;;;;;5074188;28;19924;-69
2022/04/26 16:35:21;;;;;;;;;;;14.10;79.00;;;;;;5076837;28;19924;-69
2022/04/26 16:37:46;;;;;;;;;;;13.80;78.70;;;;;;5073123;28;19972;-69
2022/04/26 16:40:12;;;;;;;;;;;13.60;79.30;;;;;;5073152;28;19960;-69
2022/04/26 16:42:38;;;;;;;;;;;13.60;80.30;;;;;;5072830;28;20413;-70
2022/04/26 16:45:04;;;;;;;;;;;13.70;83.30;;;;;;5072974;28;19925;-70
2022/04/26 16:47:29;;;;;;;;;;;13.50;84.80;;;;;;5054740;28;19978;-70
2022/04/26 16:49:55;;;;;;;;;;;13.50;86.00;;;;;;5073048;28;19964;-70
2022/04/26 16:52:20;;;;;;;;;;;13.40;86.80;;;;;;5034819;28;19928;-69
2022/04/26 16:54:46;;;;;;;;;;;13.30;87.30;;;;;;5053070;28;20310;-70
2022/04/26 16:57:11;;;;;;;;;;;13.00;87.00;;;;;;5035642;28;19925;-70
2022/04/26 16:59:37;;;;;;;;;;;;;;;;;;5059440;28;19984;-71
2022/04/26 17:02:03;;;;;;;;;;;12.80;88.60;;;;;;5035147;28;19925;-69
2022/04/26 17:04:30;;;;;;;;;;;12.70;89.80;;;;;;5034776;28;19947;-69
2022/04/26 17:06:57;;;;;;;;;;;12.70;90.00;;;;;;5053265;28;19925;-69
2022/04/26 17:09:23;;;;;;;;;;;12.70;90.40;;;;;;5052847;28;19952;-69
2022/04/26 17:11:48;;;;;;;;;;;12.70;91.10;;;;;;5052676;28;19924;-69
2022/04/26 17:14:15;;;;;;;;;;;12.70;91.20;;;;;;5051437;28;19946;-70
2022/04/26 17:16:42;;;;;;;;;;;12.60;90.80;;;;;;5034944;28;20336;-70
2022/04/26 17:19:08;;;;;;;;;;;12.60;91.10;;;;;;5056943;28;20325;-70
2022/04/26 17:21:33;;;;;;;;;;;12.60;90.90;;;;;;5056896;28;20011;-70
2022/04/26 17:24:00;;;;;;;;;;;12.50;91.00;;;;;;5055157;28;19936;-69
2022/04/26 17:26:26;;;;;;;;;;;12.50;90.70;;;;;;5056651;28;19936;-70
2022/04/26 17:28:52;;;;;;;;;;;12.60;91.40;;;;;;5056751;28;19925;-70
2022/04/26 17:31:17;;;;;;;;;;;12.40;90.80;;;;;;5056842;28;19958;-70
2022/04/26 17:33:44;;;;;;;;;;;12.30;91.20;;;;;;5038866;28;20012;-70
2022/04/26 17:36:10;;;;;;;;;;;12.30;91.60;;;;;;5056761;28;20008;-70
2022/04/26 17:38:37;;;;;;;;;;;12.30;91.60;;;;;;5056769;28;19935;-70
2022/04/26 17:41:02;;;;;;;;;;;12.30;92.60;;;;;;5060404;28;19928;-70
2022/04/26 17:43:28;;;;;;;;;;;12.30;93.00;;;;;;5061093;28;19977;-71
2022/04/26 17:45:53;;;;;;;;;;;10.90;92.40;;;;;;5055269;28;20012;-70
2022/04/26 17:48:19;;;;;;;;;;;12.10;93.10;;;;;;5057153;28;20011;-70
2022/04/26 17:50:44;;;;;;;;;;;12.10;93.30;;;;;;5059198;28;19944;-70
2022/04/26 17:58:40;;;;;;;;;;;;;;;;;;5058763;28;19924;-71
2022/04/26 18:01:06;;;;;;;;;;;;;;;;;;5041519;28;20268;-71
2022/04/26 18:03:32;;;;;;;;;;;;;;;;;;5058333;28;19974;-71
2022/04/26 18:05:58;;;;;;;;;;;;;;;;;;5077461;28;19928;-72
2022/04/26 18:08:25;;;;;;;;;;;;;;;;;;5058936;28;19930;-71
2022/04/26 18:10:50;;;;;;;;;;;12.10;99.90;;;;;;5058297;28;19936;-71
2022/04/26 18:13:19;;;;;;;;;;;;;;;;;;5041308;28;19932;-72
2022/04/26 18:15:44;;;;;;;;;;;11.60;94.80;;;;;;5057866;28;20003;-69
2022/04/26 18:18:10;;;;;;;;;;;11.60;95.70;;;;;;5075698;28;19974;-70
2022/04/26 18:20:35;;;;;;;;;;;11.40;95.60;;;;;;5075966;28;20364;-71
2022/04/26 18:23:01;;;;;;;;;;;11.30;96.30;;;;;;5075927;28;19983;-71
2022/04/26 18:28:12;;;;;;;;;;;11.20;97.70;;;;;;5076110;28;19925;-71
2022/04/26 18:30:37;;;;;;;;;;;12.20;99.90;;;;;;5075227;28;19924;-71
2022/04/26 18:33:04;;;;;;;;;;;;;;;;;;5057715;28;19925;-72
2022/04/26 18:35:30;;;;;;;;;;;;;;;;;;5075645;28;20520;-71
2022/04/26 18:37:55;;;;;;;;;;;10.80;99.90;;;;;;5075555;28;19925;-70
2022/04/26 18:40:22;;;;;;;;;;;10.60;99.90;;;;;;5075562;28;19925;-70
2022/04/26 18:42:48;;;;;;;;;;;;;;;;;;5057964;28;19960;-71
2022/04/26 18:45:14;;;;;;;;;;;10.40;99.90;;;;;;5057105;28;20038;-70
2022/04/26 18:47:39;;;;;;;;;;;10.30;99.90;;;;;;5075639;28;20336;-70
2022/04/26 18:50:05;;;;;;;;;;;10.20;99.90;;;;;;5076645;28;19924;-70
2022/04/26 18:52:31;;;;;;;;;;;;;;;;;;5075236;28;19936;-71
2022/04/26 18:54:57;;;;;;;;;;;10.00;99.90;;;;;;5075143;28;19932;-70
2022/04/26 18:57:23;;;;;;;;;;;9.90;99.90;;;;;;5077284;28;20433;-69
2022/04/26 18:59:49;;;;;;;;;;;9.90;99.90;;;;;;5076107;28;19929;-70